ADDS METAR Data INFO
IDs: Format: Raw Decoded Include TAF

Data at: 1938 UTC 17 Feb 2018

KGOV 171858Z AUTO 23010G17KT 10SM FEW085 M01/M13 A2987 RMK AO2 SLP139 T10101128
KGOV 171758Z AUTO 21011KT 10SM FEW280 M01/M12 A2990 RMK AO2 SLP149 T10131118 11013 21103 57028
KGOV 171658Z AUTO 22010KT 10SM FEW240 M03/M11 A2994 RMK AO2 LTG DSNT S SLP163 T10291113
KGOV 171558Z AUTO 21008KT 10SM FEW170 SCT350 M05/M10 A2996 RMK AO2 SLP172 T10541104
KGOV 171458Z AUTO 21008KT 10SM FEW240 M07/M10 A2999 RMK AO2 SLP183 T10661101 57011
KGOV 171358Z AUTO 21006KT 10SM CLR M08/M11 A3001 RMK AO2 SLP190 T10761110
KGOV 171258Z AUTO 19006KT 10SM OVC170 M10/M12 A3001 RMK AO2 SLP191 T10971122
KGOV 171158Z AUTO 18006KT 10SM OVC170 M10/M13 A3002 RMK AO2 SLP193 T11041127 11087 21110 57020
KGOV 171058Z AUTO 18005KT 10SM CLR M11/M13 A3005 RMK AO2 SLP203 T11101132
KGOV 170958Z AUTO 18003KT 10SM CLR M11/M13 A3007 RMK AO2 SLP209 T11091133
KGOV 170858Z AUTO 22006KT 10SM CLR M09/M13 A3008 RMK AO2 SLP212 T10911127 56013
KGOV 170758Z AUTO 22005KT 10SM CLR M09/M13 A3008 RMK AO2 SLP212 T10901131
KGOV 170658Z AUTO 23004KT 10SM CLR M09/M13 A3010 RMK AO2 SLP218 T10901133
KGOV 170558Z AUTO 23005KT 10SM CLR M09/M14 A3012 RMK AO2 SLP226 T10871138 11069 21122 58006
KGOV 170458Z AUTO 23006KT 10SM CLR M08/M14 A3014 RMK AO2 SLP233 T10831141 410381122
KGOV 170358Z AUTO 24003KT 10SM CLR M11/M13 A3015 RMK AO2 SLP237 T11151135
KGOV 170258Z AUTO 00000KT 10SM CLR M10/M12 A3014 RMK AO2 SLP233 T11031122 58003
KGOV 170158Z AUTO 00000KT 10SM CLR M08/M13 A3014 RMK AO2 SLP232 T10771134
KGOV 170058Z AUTO 27003KT 10SM CLR M09/M12 A3015 RMK AO2 SLP237 T10891122
KGOV 162358Z AUTO 00000KT 10SM CLR M06/M13 A3015 RMK AO2 SLP236 T10641129 11038 21065 52007
KGOV 162258Z AUTO 28005KT 10SM CLR M05/M13 A3014 RMK AO2 SLP231 T10501130
KGOV 162158Z AUTO 27006KT 10SM CLR M04/M12 A3013 RMK AO2 SLP227 T10381123
KGOV 162058Z AUTO 30012KT 10SM CLR M04/M13 A3012 RMK AO2 SLP223 T10411129 52013
KGOV 161958Z AUTO 28015G18KT 10SM FEW035 M04/M12 A3011 RMK AO2 SLP220 T10421122
KGOV 161858Z AUTO 29012KT 10SM BKN034 M04/M12 A3010 RMK AO2 SLP216 T10441118
KGOV 161829Z AUTO 29012KT 10SM SCT032 M05/M12 A3009 RMK AO2 WSHFT 24 SLP214
KGOV 161758Z AUTO 31010G18KT 10SM FEW023 SCT030 BKN036 M05/M12 A3008 RMK AO2 SNE01SNB24E35 SLP210 P0000 60000 T10551121 11047 21061
KGOV 161745Z AUTO 31012G19KT 10SM OVC032 M05/M11 A3008 RMK AO2 SNE01SNB24E35 SLP210
KGOV 161735Z AUTO 31008KT 9SM BKN029 OVC036 M05/M11 A3008 RMK AO2 SNE01SNB24E35 SLP210
KGOV 161724Z AUTO 31013KT 8SM -SN FEW019 BKN029 OVC036 M05/M11 A3008 RMK AO2 SNE01SNB24 BKN V OVC SLP210
KGOV 161705Z AUTO 32011KT M M FEW019 BKN027 OVC032 M06/M10 A3008 RMK AO2 SNE01 BKN V OVC SLP211 $
KGOV 161700Z AUTO 34011KT M M M M M RMK AO2 SLPNO $
KGOV 161658Z AUTO 33009KT 5SM -SN SCT019 OVC027 M06/M09 A3008 RMK AO2 OVC V BKN SLP211
KGOV 161653Z AUTO 33011KT 4SM -SN SCT019 OVC027 M06/M09 A3008 RMK AO2 OVC V BKN SLP211
KGOV 161648Z AUTO 33007KT 2 1/2SM -SN FEW019 OVC027 M06/M09 A3008 RMK AO2 VIS 2 1/2V5 SLP211
KGOV 161643Z AUTO 33009G18KT 3SM -SN FEW019 OVC026 M06/M09 A3008 RMK AO2 SLP211
KGOV 161633Z AUTO 34013KT 2SM -SN BKN027 OVC350 M06/M09 A3007 RMK AO2 VIS 2V6 SLP206
KGOV 161623Z AUTO 33015KT 3SM -SN FEW020 BKN027 OVC350 M06/M09 A3006 RMK AO2 SLP203
KGOV 161618Z AUTO 33012KT 2 1/4SM -SN FEW020 BKN025 OVC340 M06/M09 A3006 RMK AO2 VIS 2 1/4V7 SLP203
KGOV 161603Z AUTO 33010G19KT 3SM -SN FEW002 OVC021 M06/M09 A3005 RMK AO2 CIG 013V021 SLP199
KGOV 161558Z AUTO 33012G19KT 1 1/2SM -SN FEW002 OVC015 M06/M09 A3005 RMK AO2 VIS 5/8V1 1/2 CIG 011V015 SLP199 P0000 T10591086
KGOV 161553Z AUTO 32012G19KT 3/4SM R14/5000FT -SN FEW002 OVC011 M06/M08 A3004 RMK AO2 CIG 011V015 SLP196
KGOV 161543Z AUTO 33012KT 7/8SM R14/4500FT -SN SCT002 OVC015 M05/M08 A3004 RMK AO2 CIG 002V017 SLP196
KGOV 161538Z AUTO 32010KT 1SM R14/5500FT -SN SCT002 OVC012 M05/M08 A3003 RMK AO2 VIS 1V1 5/8 CIG 002V017 SLP193
KGOV 161518Z AUTO 34009KT 1 3/4SM -SN FEW002 OVC018 M05/M08 A3002 RMK AO2 VIS 1 3/4V6 OVC V BKN SLP189
KGOV 161458Z AUTO 31010KT 3SM -SN BKN018 OVC046 M05/M08 A3001 RMK AO2 SLP185 P0000 60000 52026
KGOV 161448Z AUTO 33011KT 2 3/4SM -SN BKN018 OVC043 M05/M08 A3001 RMK AO2 VIS 2 3/4V5 CIG 018V042 BKN V SCT SLP185
KGOV 161403Z AUTO 34009KT 3SM -SN SCT017 OVC037 M05/M08 A2999 RMK AO2 SLP178
KGOV 161358Z AUTO 32007KT 2 1/2SM -SN BKN016 OVC035 M05/M08 A2999 RMK AO2 VIS 2V2 1/2 CIG 016V035 SLP178 P0000 T10541078
KGOV 161338Z AUTO 32008KT 2 1/4SM -SN FEW017 OVC032 M05/M08 A2999 RMK AO2 VIS 2 1/4V4 SLP178
KGOV 161258Z AUTO 33005KT M -SN SCT017 OVC036 M06/M08 A2997 RMK AO2 SNB31E51SNB53 SLPNO P0000 T10581081 $
KGOV 161253Z AUTO 33006KT M -SN SCT017 BKN037 OVC080 M06/M08 A2997 RMK AO2 SNB31E51SNB53 SLPNO $
KGOV 161250Z AUTO 33007KT M M M M M RMK AO2 SNB31 SLPNO $
KGOV 161241Z AUTO 33009KT 7SM -SN SCT017 BKN040 BKN080 M06/M08 A2996 RMK AO2 SNB31 SLPNO
KGOV 161231Z AUTO 32008KT 10SM -SN BKN017 BKN070 M06/M08 A2996 RMK AO2 SNB31 CIG 017V070 BKN017 V SCT SLPNO
KGOV 161228Z AUTO 33009KT 10SM BKN017 BKN070 M06/M08 A2995 RMK AO2 CIG 017V070 BKN017 V SCT SLPNO
KGOV 161218Z AUTO 33012KT 10SM SCT017 BKN070 M06/M09 A2994 RMK AO2 SLPNO
KGOV 161158Z AUTO 32011KT 10SM BKN017 M06/M08 A2992 RMK AO2 BKN V OVC SLPNO T10571084 11043 21057 52029
KGOV 161058Z AUTO 33012KT 10SM OVC015 M05/M08 A2991 RMK AO2 SLP148 T10511076
KGOV 161033Z AUTO 32009KT 10SM OVC015 M05/M08 A2989 RMK AO2 LTG DSNT S SLP142
KGOV 161028Z AUTO 32008KT 10SM OVC014 M05/M08 A2988 RMK AO2 LTG DSNT S SLP138
KGOV 161023Z AUTO 33008KT 10SM OVC015 M05/M08 A2987 RMK AO2 LTG DSNT S SLP135
KGOV 160958Z AUTO 32007KT 10SM OVC013 M05/M07 A2987 RMK AO2 SLP135 T10521074
KGOV 160858Z AUTO 34012KT 10SM OVC011 M05/M07 A2984 RMK AO2 SLPNO T10521072 51016
KGOV 160758Z AUTO 32008KT 10SM OVC010 M05/M07 A2983 RMK AO2 SLP118 T10531070
KGOV 160753Z AUTO 31012KT 10SM OVC010 M05/M07 A2983 RMK AO2 SLP118